createdAt,value
2022-11-17T00:01:56.853Z,29.40
2022-11-17T00:05:03.161Z,48.70
2022-11-17T00:08:09.468Z,53.10
2022-11-17T00:11:16.137Z,44.17
2022-11-17T00:14:33.547Z,40.63
2022-11-17T00:17:41.584Z,67.50
2022-11-17T00:21:05.294Z,47.37
2022-11-17T00:24:11.646Z,58.57
2022-11-17T00:27:18.666Z,45.63
2022-11-17T00:30:44.066Z,33.60
2022-11-17T00:34:06.954Z,33.63
2022-11-17T00:37:29.792Z,21.43
2022-11-17T00:40:35.956Z,19.37
2022-11-17T00:43:42.143Z,19.20
2022-11-17T00:46:48.656Z,21.87
2022-11-17T00:49:56.550Z,25.00
2022-11-17T00:53:02.755Z,24.43
2022-11-17T00:56:09.042Z,30.13
2022-11-17T00:59:15.423Z,34.17
2022-11-17T01:02:21.352Z,28.77
2022-11-17T01:05:32.825Z,26.10
2022-11-17T01:08:39.894Z,24.67
2022-11-17T01:11:47.003Z,26.37
2022-11-17T01:14:52.957Z,37.33
2022-11-17T01:17:59.002Z,41.63
2022-11-17T01:21:09.690Z,30.80
2022-11-17T01:24:17.828Z,32.23
2022-11-17T01:27:24.318Z,30.10
2022-11-17T01:30:30.489Z,38.33
2022-11-17T01:33:36.992Z,36.00
2022-11-17T01:37:03.433Z,32.40
2022-11-17T01:40:13.345Z,23.30
2022-11-17T01:43:41.526Z,26.80
2022-11-17T01:46:47.877Z,22.33
2022-11-17T01:49:57.837Z,26.60
2022-11-17T01:53:08.145Z,32.37
2022-11-17T01:56:20.726Z,28.03
2022-11-17T01:59:30.765Z,35.90
2022-11-17T02:02:39.029Z,24.50
2022-11-17T02:05:51.566Z,27.27
2022-11-17T02:09:00.806Z,27.57
2022-11-17T02:12:10.398Z,30.50
2022-11-17T02:15:16.339Z,28.43
2022-11-17T02:18:22.837Z,25.07
2022-11-17T02:22:03.858Z,27.90
2022-11-17T02:25:28.741Z,24.03
2022-11-17T02:28:38.697Z,26.50
2022-11-17T02:31:54.301Z,34.53
2022-11-17T02:35:10.794Z,29.63
2022-11-17T02:38:28.347Z,36.67
2022-11-17T02:41:40.322Z,27.93
2022-11-17T02:44:56.220Z,35.03
2022-11-17T02:48:06.867Z,31.60
2022-11-17T02:51:16.681Z,23.80
2022-11-17T02:54:25.443Z,20.10
2022-11-17T02:57:33.510Z,22.50
2022-11-17T03:00:50.809Z,25.53
2022-11-17T03:04:24.061Z,21.17
2022-11-17T03:07:46.222Z,26.87
2022-11-17T03:10:59.864Z,19.00
2022-11-17T03:14:14.045Z,27.87
2022-11-17T03:17:25.143Z,23.57
2022-11-17T03:20:36.630Z,19.80
2022-11-17T03:23:48.245Z,17.50
2022-11-17T03:26:59.872Z,21.73
2022-11-17T03:30:09.147Z,20.53
2022-11-17T03:33:20.739Z,25.13
2022-11-17T03:36:30.682Z,20.97
2022-11-17T03:39:39.234Z,19.17
2022-11-17T03:42:52.737Z,21.53
2022-11-17T03:46:07.102Z,28.90
2022-11-17T03:49:22.013Z,23.83
2022-11-17T03:52:30.143Z,18.17
2022-11-17T03:55:43.280Z,20.20
2022-11-17T03:58:57.946Z,20.87
2022-11-17T04:02:04.649Z,23.90
2022-11-17T04:05:13.380Z,22.30
2022-11-17T04:08:19.934Z,24.30
2022-11-17T04:11:44.094Z,29.07
2022-11-17T04:15:08.126Z,23.30
2022-11-17T04:18:15.326Z,25.63
2022-11-17T04:21:23.115Z,28.73
2022-11-17T04:24:29.172Z,27.60
2022-11-17T04:27:52.933Z,34.20
2022-11-17T04:30:58.933Z,42.50
2022-11-17T04:34:06.644Z,27.17
2022-11-17T04:37:17.522Z,24.27
2022-11-17T04:40:24.044Z,26.07
2022-11-17T04:43:29.192Z,36.13
2022-11-17T04:46:36.646Z,21.37
2022-11-17T04:49:42.783Z,26.70
2022-11-17T04:52:50.374Z,25.70
2022-11-17T04:56:00.958Z,24.07
2022-11-17T04:59:08.512Z,34.90
2022-11-17T05:02:14.931Z,31.47
2022-11-17T05:05:35.359Z,24.60
2022-11-17T05:08:43.378Z,20.30
2022-11-17T05:12:07.173Z,41.50
2022-11-17T05:15:33.246Z,29.73
2022-11-17T05:18:38.727Z,24.83
2022-11-17T05:21:45.333Z,42.07
2022-11-17T05:24:52.165Z,43.70
2022-11-17T05:27:58.223Z,39.80
2022-11-17T05:31:04.274Z,42.53
2022-11-17T05:34:13.456Z,44.63
2022-11-17T05:37:19.697Z,36.00
2022-11-17T05:40:27.415Z,40.67
2022-11-17T05:43:33.987Z,75.00
2022-11-17T05:46:40.606Z,42.30
2022-11-17T05:49:46.988Z,38.67
2022-11-17T05:52:53.176Z,33.47
2022-11-17T05:56:15.244Z,34.83
2022-11-17T05:59:28.281Z,66.87
2022-11-17T06:02:42.136Z,54.67
2022-11-17T06:05:48.851Z,66.90
2022-11-17T06:08:55.375Z,50.13
2022-11-17T06:12:06.118Z,54.07
2022-11-17T06:15:13.208Z,58.73
2022-11-17T06:18:21.574Z,64.77
2022-11-17T06:21:43.080Z,60.83
2022-11-17T06:24:55.723Z,66.43
2022-11-17T06:28:06.482Z,63.80
2022-11-17T06:31:13.277Z,58.87
2022-11-17T06:34:19.321Z,65.17
2022-11-17T06:37:26.089Z,55.83
2022-11-17T06:40:32.449Z,72.43
2022-11-17T06:43:40.136Z,60.53
2022-11-17T06:46:49.213Z,70.03
2022-11-17T06:49:55.746Z,83.57
2022-11-17T06:53:03.601Z,95.17
2022-11-17T06:56:10.956Z,99.43
2022-11-17T06:59:18.521Z,124.67
2022-11-17T07:02:24.702Z,124.87
2022-11-17T07:05:31.929Z,63.53
2022-11-17T07:08:39.889Z,41.10
2022-11-17T07:11:46.395Z,114.73
2022-11-17T07:14:54.381Z,50.10
2022-11-17T07:18:01.019Z,47.40
2022-11-17T07:21:10.275Z,38.27
2022-11-17T07:24:16.781Z,43.70
2022-11-17T07:27:23.015Z,74.93
2022-11-17T07:30:30.883Z,47.10
2022-11-17T07:33:37.966Z,55.07
2022-11-17T07:36:44.159Z,130.53
2022-11-17T07:39:50.310Z,61.10
2022-11-17T07:42:57.259Z,36.23
2022-11-17T07:46:07.431Z,41.40
2022-11-17T07:49:14.152Z,41.77
2022-11-17T07:52:20.726Z,44.50
2022-11-17T07:55:27.807Z,38.97
2022-11-17T07:58:34.971Z,45.60
2022-11-17T08:01:43.410Z,39.17
2022-11-17T08:04:49.589Z,51.40
2022-11-17T08:07:57.641Z,42.70
2022-11-17T08:11:05.255Z,37.93
2022-11-17T08:14:11.392Z,40.43
2022-11-17T08:17:19.234Z,44.10
2022-11-17T08:20:26.279Z,47.20
2022-11-17T08:23:33.193Z,39.10
2022-11-17T08:26:39.477Z,65.07
2022-11-17T08:29:45.819Z,52.70
2022-11-17T08:32:55.392Z,63.93
2022-11-17T08:36:03.234Z,63.70
2022-11-17T08:39:09.302Z,72.53
2022-11-17T08:42:17.525Z,67.07
2022-11-17T08:45:24.301Z,99.03
2022-11-17T08:48:33.396Z,95.93
2022-11-17T08:51:39.857Z,87.07
2022-11-17T08:54:46.787Z,83.10
2022-11-17T08:57:53.089Z,81.43
2022-11-17T09:01:04.967Z,61.73
2022-11-17T09:04:13.471Z,39.33
2022-11-17T09:07:20.283Z,33.50
2022-11-17T09:10:26.782Z,40.17
2022-11-17T09:13:33.786Z,35.40
2022-11-17T09:16:40.620Z,28.47
2022-11-17T09:19:48.215Z,28.90
2022-11-17T09:22:54.678Z,21.83
2022-11-17T09:26:06.215Z,24.53
2022-11-17T09:29:12.543Z,17.23
2022-11-17T09:32:20.820Z,15.37
2022-11-17T09:35:28.480Z,19.57
2022-11-17T09:38:35.052Z,21.27
2022-11-17T09:41:44.006Z,15.93
2022-11-17T09:44:55.806Z,18.30
2022-11-17T09:48:38.803Z,17.77
2022-11-17T09:51:39.673Z,57.80
2022-11-17T09:54:51.911Z,29.87
2022-11-17T09:58:07.711Z,255.57
2022-11-17T10:01:15.666Z,103.10
2022-11-17T10:04:22.602Z,156.60
2022-11-17T10:07:33.032Z,48.30
2022-11-17T10:10:44.335Z,47.67
2022-11-17T10:13:51.784Z,39.10
2022-11-17T10:16:59.779Z,31.27
2022-11-17T10:20:16.477Z,29.17
2022-11-17T10:23:24.240Z,31.30
2022-11-17T10:26:44.885Z,31.97
2022-11-17T10:29:59.412Z,20.83
2022-11-17T10:33:06.218Z,20.67
2022-11-17T10:36:20.647Z,15.17
2022-11-17T10:39:36.854Z,18.43
2022-11-17T10:42:54.009Z,13.13
2022-11-17T10:46:03.346Z,15.30
2022-11-17T10:49:25.967Z,15.57
2022-11-17T10:52:32.458Z,10.13
2022-11-17T10:55:40.751Z,12.30
2022-11-17T10:59:00.944Z,14.57
2022-11-17T11:02:28.706Z,15.97
2022-11-17T11:05:35.287Z,15.83
2022-11-17T11:08:51.485Z,18.93
2022-11-17T11:12:02.282Z,15.63
2022-11-17T11:15:29.477Z,14.07
2022-11-17T11:18:36.044Z,18.67
2022-11-17T11:21:59.073Z,16.00
2022-11-17T11:25:20.722Z,9.67
2022-11-17T11:28:45.727Z,8.93
2022-11-17T11:32:10.464Z,8.27
2022-11-17T11:35:55.672Z,7.83
2022-11-17T11:39:08.489Z,11.17
2022-11-17T11:42:27.551Z,6.43
2022-11-17T11:45:58.133Z,5.83
2022-11-17T11:49:15.468Z,4.70
2022-11-17T11:52:23.488Z,4.83
2022-11-17T11:55:33.484Z,8.87
2022-11-17T11:58:47.576Z,5.93
2022-11-17T12:02:08.379Z,5.40
2022-11-17T12:05:23.032Z,5.33
2022-11-17T12:08:34.136Z,4.97
2022-11-17T12:11:59.986Z,18.07
2022-11-17T12:15:37.180Z,14.77
2022-11-17T12:18:45.109Z,6.93
2022-11-17T12:21:55.710Z,8.43
2022-11-17T12:25:14.341Z,3.63
2022-11-17T12:28:31.026Z,5.60
2022-11-17T12:31:44.947Z,4.17
2022-11-17T12:35:24.340Z,4.50
2022-11-17T12:38:41.857Z,5.20
2022-11-17T12:42:09.420Z,4.90
2022-11-17T12:45:16.100Z,5.67
2022-11-17T12:48:34.115Z,4.90
2022-11-17T12:51:53.259Z,4.43
2022-11-17T12:55:07.416Z,4.07
2022-11-17T12:58:22.936Z,4.87
2022-11-17T13:01:38.941Z,8.70
2022-11-17T13:04:49.601Z,6.27
2022-11-17T13:08:22.503Z,5.57
2022-11-17T13:11:29.987Z,4.57
2022-11-17T13:14:38.143Z,5.33
2022-11-17T13:17:44.847Z,4.27
2022-11-17T13:20:51.067Z,7.10
2022-11-17T13:24:00.400Z,8.07
2022-11-17T13:27:18.881Z,10.00
2022-11-17T13:30:28.352Z,10.70
2022-11-17T13:33:40.014Z,7.60
2022-11-17T13:36:54.341Z,8.93
2022-11-17T13:40:05.642Z,7.47
2022-11-17T13:43:14.449Z,10.87
2022-11-17T13:46:20.956Z,8.13
2022-11-17T13:49:34.958Z,9.30
2022-11-17T13:52:46.944Z,5.27
2022-11-17T13:55:55.270Z,5.03
2022-11-17T13:59:04.116Z,7.87
2022-11-17T14:02:29.587Z,7.03
2022-11-17T14:05:35.807Z,8.03
2022-11-17T14:08:45.397Z,11.70
2022-11-17T14:11:53.161Z,8.77
2022-11-17T14:14:59.624Z,9.73
2022-11-17T14:18:27.030Z,6.47
2022-11-17T14:21:33.711Z,11.07
2022-11-17T14:24:41.000Z,29.13
2022-11-17T14:27:53.238Z,9.57
2022-11-17T14:31:00.184Z,16.60
2022-11-17T14:34:06.413Z,15.13
2022-11-17T14:37:12.822Z,10.23
2022-11-17T14:40:19.666Z,13.50
2022-11-17T14:43:27.415Z,9.73
2022-11-17T14:46:33.933Z,9.17
2022-11-17T14:49:40.073Z,9.53
2022-11-17T14:52:47.458Z,7.83
2022-11-17T14:55:53.814Z,8.13
2022-11-17T14:59:01.736Z,10.17
2022-11-17T15:02:07.792Z,11.57
2022-11-17T15:05:14.794Z,15.13
2022-11-17T15:08:21.245Z,19.03
2022-11-17T15:11:29.403Z,15.37
2022-11-17T15:14:37.197Z,9.07
2022-11-17T15:17:43.585Z,6.33
2022-11-17T15:20:49.948Z,11.70
2022-11-17T15:23:56.201Z,9.43
2022-11-17T15:27:02.864Z,22.63
2022-11-17T15:30:11.716Z,14.47
2022-11-17T15:33:18.251Z,19.67
2022-11-17T15:36:24.883Z,17.97
2022-11-17T15:39:31.803Z,12.80
2022-11-17T15:42:38.513Z,29.50
2022-11-17T15:45:46.503Z,24.30
2022-11-17T15:48:53.228Z,17.47
2022-11-17T15:51:59.698Z,14.73
2022-11-17T15:55:06.686Z,25.47
2022-11-17T15:58:13.216Z,25.57
2022-11-17T16:01:28.146Z,20.57
2022-11-17T16:04:34.744Z,18.37
2022-11-17T16:07:41.364Z,35.87
2022-11-17T16:10:47.793Z,25.03
2022-11-17T16:13:54.850Z,21.47
2022-11-17T16:17:02.683Z,80.00
2022-11-17T16:20:24.961Z,58.33
2022-11-17T16:23:31.841Z,38.37
2022-11-17T16:26:38.467Z,37.63
2022-11-17T16:29:44.859Z,30.43
2022-11-17T16:32:52.702Z,29.23
2022-11-17T16:36:05.795Z,22.30
2022-11-17T16:39:14.452Z,32.13
2022-11-17T16:42:21.103Z,23.33
2022-11-17T16:45:27.263Z,21.40
2022-11-17T16:48:36.243Z,25.67
2022-11-17T16:51:47.407Z,23.30
2022-11-17T16:54:54.297Z,15.87
2022-11-17T16:58:00.575Z,29.43
2022-11-17T17:01:14.509Z,33.57
2022-11-17T17:04:22.010Z,47.63
2022-11-17T17:07:28.618Z,30.07
2022-11-17T17:10:35.213Z,61.13
2022-11-17T17:13:42.010Z,69.17
2022-11-17T17:16:48.461Z,43.63
2022-11-17T17:19:56.183Z,31.27
2022-11-17T17:23:03.345Z,27.70
2022-11-17T17:26:12.166Z,35.10
2022-11-17T17:29:18.372Z,31.80
2022-11-17T17:32:24.642Z,31.10
2022-11-17T17:35:34.883Z,34.30
2022-11-17T17:38:41.573Z,33.93
2022-11-17T17:41:47.862Z,43.70
2022-11-17T17:44:54.015Z,43.33
2022-11-17T17:48:00.583Z,54.03
2022-11-17T17:51:10.199Z,46.30
2022-11-17T17:54:18.298Z,30.30
2022-11-17T17:57:25.426Z,27.07
2022-11-17T18:00:34.211Z,37.10
2022-11-17T18:03:43.322Z,34.93
2022-11-17T18:06:51.188Z,27.90
2022-11-17T18:09:57.527Z,37.43
2022-11-17T18:13:09.273Z,36.33
2022-11-17T18:16:19.348Z,31.57
2022-11-17T18:19:31.424Z,36.10
2022-11-17T18:22:40.443Z,45.60
2022-11-17T18:25:46.677Z,70.03
2022-11-17T18:28:54.828Z,58.60
2022-11-17T18:32:01.212Z,66.60
2022-11-17T18:35:08.669Z,62.47
2022-11-17T18:38:16.376Z,49.50
2022-11-17T18:41:23.854Z,53.93
2022-11-17T18:44:30.904Z,52.67
2022-11-17T18:47:36.962Z,61.43
2022-11-17T18:51:12.296Z,56.07
2022-11-17T18:54:13.404Z,41.40
2022-11-17T18:57:20.072Z,42.23
2022-11-17T19:00:26.357Z,28.03
2022-11-17T19:03:32.623Z,16.30
2022-11-17T19:06:38.874Z,40.57
2022-11-17T19:09:46.239Z,31.57
2022-11-17T19:12:52.633Z,21.23
2022-11-17T19:16:05.780Z,27.23
2022-11-17T19:19:13.453Z,17.73
2022-11-17T19:22:20.638Z,15.57
2022-11-17T19:25:28.516Z,10.20
2022-11-17T19:28:35.472Z,11.90
2022-11-17T19:31:41.863Z,13.07
2022-11-17T19:34:47.987Z,25.47
2022-11-17T19:37:54.392Z,32.17
2022-11-17T19:41:04.441Z,38.50
2022-11-17T19:44:11.234Z,39.50
2022-11-17T19:47:17.986Z,36.10
2022-11-17T19:50:24.440Z,25.60
2022-11-17T19:53:30.853Z,25.87
2022-11-17T19:56:38.730Z,36.20
2022-11-17T19:59:45.112Z,26.50
2022-11-17T20:02:51.192Z,33.80
2022-11-17T20:06:01.042Z,22.07
2022-11-17T20:09:19.765Z,22.30
2022-11-17T20:12:41.436Z,48.73
2022-11-17T20:15:48.110Z,40.77
2022-11-17T20:18:58.120Z,41.37
2022-11-17T20:22:04.528Z,57.83
2022-11-17T20:25:11.241Z,55.63
2022-11-17T20:28:19.066Z,53.73
2022-11-17T20:31:27.397Z,62.17
2022-11-17T20:34:33.568Z,58.00
2022-11-17T20:37:39.907Z,74.63
2022-11-17T20:40:46.228Z,59.40
2022-11-17T20:43:55.389Z,27.63
2022-11-17T20:47:01.731Z,30.97
2022-11-17T20:50:08.720Z,12.23
2022-11-17T20:53:15.145Z,15.97
2022-11-17T20:56:21.640Z,10.33
2022-11-17T20:59:29.028Z,25.03
2022-11-17T21:02:35.230Z,27.83
2022-11-17T21:05:41.786Z,11.23
2022-11-17T21:08:48.255Z,13.47
2022-11-17T21:11:57.536Z,10.10
2022-11-17T21:15:06.646Z,46.90
2022-11-17T21:18:25.374Z,29.43
2022-11-17T21:21:31.585Z,30.63
2022-11-17T21:24:37.968Z,38.73
2022-11-17T21:27:44.146Z,40.30
2022-11-17T21:30:51.817Z,51.17
2022-11-17T21:34:00.607Z,37.40
2022-11-17T21:37:06.788Z,45.17
2022-11-17T21:40:14.319Z,42.20
2022-11-17T21:43:20.427Z,28.57
2022-11-17T21:46:29.828Z,21.73
2022-11-17T21:49:36.194Z,34.70
2022-11-17T21:52:42.645Z,27.33
2022-11-17T21:55:48.797Z,33.57
2022-11-17T21:58:56.105Z,37.37
2022-11-17T22:02:03.654Z,45.90
2022-11-17T22:05:10.164Z,43.83
2022-11-17T22:08:16.909Z,49.47
2022-11-17T22:11:36.763Z,58.00
2022-11-17T22:14:43.634Z,52.77
2022-11-17T22:17:51.199Z,51.03
2022-11-17T22:20:57.323Z,30.60
2022-11-17T22:24:04.109Z,25.23
2022-11-17T22:27:10.505Z,21.13
2022-11-17T22:30:17.079Z,20.07
2022-11-17T22:33:25.431Z,30.77
2022-11-17T22:36:31.610Z,35.13
2022-11-17T22:39:38.477Z,41.63
2022-11-17T22:42:44.922Z,30.83
2022-11-17T22:45:50.974Z,38.97
2022-11-17T22:48:59.169Z,26.93
2022-11-17T22:52:07.421Z,27.20
2022-11-17T22:55:13.683Z,34.10
2022-11-17T22:58:20.642Z,67.93
2022-11-17T23:01:27.250Z,56.67
2022-11-17T23:04:34.937Z,54.20
2022-11-17T23:07:41.506Z,50.53
2022-11-17T23:10:48.053Z,50.43
2022-11-17T23:13:54.500Z,39.97
2022-11-17T23:17:00.911Z,38.87
2022-11-17T23:20:10.424Z,22.30
2022-11-17T23:23:16.904Z,27.33
2022-11-17T23:26:23.168Z,15.30
2022-11-17T23:29:29.499Z,16.50
2022-11-17T23:32:35.879Z,19.23
2022-11-17T23:35:44.060Z,23.20
2022-11-17T23:38:51.618Z,26.80
2022-11-17T23:41:57.791Z,26.57
2022-11-17T23:45:03.973Z,18.37
2022-11-17T23:48:10.264Z,35.17
2022-11-17T23:51:19.085Z,23.60
2022-11-17T23:54:25.307Z,17.57
2022-11-17T23:57:31.493Z,29.70
